sensor_id;sensor_type;location;lat;lon;timestamp;temperature;humidity
22383;DHT22;11359;45.802;13.530;2023-02-11T00:00:31;13.30;23.40
22383;DHT22;11359;45.802;13.530;2023-02-11T00:02:56;13.30;23.40
22383;DHT22;11359;45.802;13.530;2023-02-11T00:05:22;13.20;23.40
22383;DHT22;11359;45.802;13.530;2023-02-11T00:07:48;13.10;23.40
22383;DHT22;11359;45.802;13.530;2023-02-11T00:10:13;13.10;23.50
22383;DHT22;11359;45.802;13.530;2023-02-11T00:12:39;13.10;23.50
22383;DHT22;11359;45.802;13.530;2023-02-11T00:15:08;13.00;23.50
22383;DHT22;11359;45.802;13.530;2023-02-11T00:17:34;12.90;23.60
22383;DHT22;11359;45.802;13.530;2023-02-11T00:20:00;12.90;23.70
22383;DHT22;11359;45.802;13.530;2023-02-11T00:22:26;12.90;23.80
22383;DHT22;11359;45.802;13.530;2023-02-11T00:24:52;12.80;23.80
22383;DHT22;11359;45.802;13.530;2023-02-11T00:27:18;12.80;23.80
22383;DHT22;11359;45.802;13.530;2023-02-11T00:29:44;12.80;23.80
22383;DHT22;11359;45.802;13.530;2023-02-11T00:32:09;12.70;23.80
22383;DHT22;11359;45.802;13.530;2023-02-11T00:34:35;12.70;23.80
22383;DHT22;11359;45.802;13.530;2023-02-11T00:37:02;12.60;23.80
22383;DHT22;11359;45.802;13.530;2023-02-11T00:39:28;12.60;23.90
22383;DHT22;11359;45.802;13.530;2023-02-11T00:41:54;12.50;23.90
22383;DHT22;11359;45.802;13.530;2023-02-11T00:44:19;12.50;24.00
22383;DHT22;11359;45.802;13.530;2023-02-11T00:46:45;12.40;24.00
22383;DHT22;11359;45.802;13.530;2023-02-11T00:49:11;12.40;24.00
22383;DHT22;11359;45.802;13.530;2023-02-11T00:51:37;12.40;24.10
22383;DHT22;11359;45.802;13.530;2023-02-11T00:54:04;12.30;24.10
22383;DHT22;11359;45.802;13.530;2023-02-11T00:56:30;12.20;24.10
22383;DHT22;11359;45.802;13.530;2023-02-11T00:58:56;12.20;24.20
22383;DHT22;11359;45.802;13.530;2023-02-11T01:01:21;12.10;24.20
22383;DHT22;11359;45.802;13.530;2023-02-11T01:03:47;12.10;24.30
22383;DHT22;11359;45.802;13.530;2023-02-11T01:06:13;12.10;24.30
22383;DHT22;11359;45.802;13.530;2023-02-11T01:08:40;12.00;24.30
22383;DHT22;11359;45.802;13.530;2023-02-11T01:11:11;12.00;24.40
22383;DHT22;11359;45.802;13.530;2023-02-11T01:13:37;12.00;24.40
22383;DHT22;11359;45.802;13.530;2023-02-11T01:16:05;11.90;24.40
22383;DHT22;11359;45.802;13.530;2023-02-11T01:18:32;11.90;24.50
22383;DHT22;11359;45.802;13.530;2023-02-11T01:20:57;11.80;24.50
22383;DHT22;11359;45.802;13.530;2023-02-11T01:23:23;11.80;24.60
22383;DHT22;11359;45.802;13.530;2023-02-11T01:25:49;11.70;24.60
22383;DHT22;11359;45.802;13.530;2023-02-11T01:28:17;11.70;24.70
22383;DHT22;11359;45.802;13.530;2023-02-11T01:30:43;11.60;24.70
22383;DHT22;11359;45.802;13.530;2023-02-11T01:33:09;11.60;24.70
22383;DHT22;11359;45.802;13.530;2023-02-11T01:35:36;11.50;24.80
22383;DHT22;11359;45.802;13.530;2023-02-11T01:38:02;11.50;24.80
22383;DHT22;11359;45.802;13.530;2023-02-11T01:40:27;11.50;24.90
22383;DHT22;11359;45.802;13.530;2023-02-11T01:42:53;11.50;24.90
22383;DHT22;11359;45.802;13.530;2023-02-11T01:45:45;11.40;24.90
22383;DHT22;11359;45.802;13.530;2023-02-11T01:48:41;11.40;24.90
22383;DHT22;11359;45.802;13.530;2023-02-11T01:51:19;11.30;24.90
22383;DHT22;11359;45.802;13.530;2023-02-11T01:53:46;11.30;24.90
22383;DHT22;11359;45.802;13.530;2023-02-11T01:56:33;11.20;25.00
22383;DHT22;11359;45.802;13.530;2023-02-11T01:59:31;11.20;25.00
22383;DHT22;11359;45.802;13.530;2023-02-11T02:02:01;11.20;25.10
22383;DHT22;11359;45.802;13.530;2023-02-11T02:04:34;11.10;25.10
22383;DHT22;11359;45.802;13.530;2023-02-11T02:07:05;11.10;25.10
22383;DHT22;11359;45.802;13.530;2023-02-11T02:09:38;11.10;25.20
22383;DHT22;11359;45.802;13.530;2023-02-11T02:12:06;11.00;25.20
22383;DHT22;11359;45.802;13.530;2023-02-11T02:14:31;11.00;25.30
22383;DHT22;11359;45.802;13.530;2023-02-11T02:16:57;11.00;25.30
22383;DHT22;11359;45.802;13.530;2023-02-11T02:22:40;10.90;25.30
22383;DHT22;11359;45.802;13.530;2023-02-11T02:31:37;10.80;25.40
22383;DHT22;11359;45.802;13.530;2023-02-11T02:36:17;10.70;25.50
22383;DHT22;11359;45.802;13.530;2023-02-11T02:38:58;10.70;25.50
22383;DHT22;11359;45.802;13.530;2023-02-11T02:41:32;10.70;25.50
22383;DHT22;11359;45.802;13.530;2023-02-11T02:44:00;10.60;25.50
22383;DHT22;11359;45.802;13.530;2023-02-11T02:46:29;10.60;25.50
22383;DHT22;11359;45.802;13.530;2023-02-11T02:48:56;10.60;25.50
22383;DHT22;11359;45.802;13.530;2023-02-11T02:54:32;10.50;25.50
22383;DHT22;11359;45.802;13.530;2023-02-11T03:06:31;10.30;25.70
22383;DHT22;11359;45.802;13.530;2023-02-11T03:09:10;10.30;25.70
22383;DHT22;11359;45.802;13.530;2023-02-11T03:11:37;10.30;25.80
22383;DHT22;11359;45.802;13.530;2023-02-11T03:14:08;10.30;25.80
22383;DHT22;11359;45.802;13.530;2023-02-11T03:16:36;10.20;25.90
22383;DHT22;11359;45.802;13.530;2023-02-11T03:19:33;10.20;25.90
22383;DHT22;11359;45.802;13.530;2023-02-11T03:22:02;10.20;25.90
22383;DHT22;11359;45.802;13.530;2023-02-11T03:24:33;10.20;25.90
22383;DHT22;11359;45.802;13.530;2023-02-11T03:29:48;10.10;25.90
22383;DHT22;11359;45.802;13.530;2023-02-11T03:32:34;10.10;25.90
22383;DHT22;11359;45.802;13.530;2023-02-11T03:35:10;10.10;25.90
22383;DHT22;11359;45.802;13.530;2023-02-11T03:37:42;10.10;26.00
22383;DHT22;11359;45.802;13.530;2023-02-11T03:40:16;10.00;26.00
22383;DHT22;11359;45.802;13.530;2023-02-11T03:42:52;9.90;26.00
22383;DHT22;11359;45.802;13.530;2023-02-11T03:45:21;9.90;26.10
22383;DHT22;11359;45.802;13.530;2023-02-11T03:47:53;9.90;26.70
22383;DHT22;11359;45.802;13.530;2023-02-11T03:50:21;9.90;26.20
22383;DHT22;11359;45.802;13.530;2023-02-11T03:52:48;9.80;26.20
22383;DHT22;11359;45.802;13.530;2023-02-11T03:55:19;9.80;26.30
22383;DHT22;11359;45.802;13.530;2023-02-11T03:57:46;9.80;26.30
22383;DHT22;11359;45.802;13.530;2023-02-11T04:00:13;9.80;26.40
22383;DHT22;11359;45.802;13.530;2023-02-11T04:02:40;9.80;26.40
22383;DHT22;11359;45.802;13.530;2023-02-11T04:05:07;9.80;26.40
22383;DHT22;11359;45.802;13.530;2023-02-11T04:07:33;9.70;26.40
22383;DHT22;11359;45.802;13.530;2023-02-11T04:09:59;9.70;26.40
22383;DHT22;11359;45.802;13.530;2023-02-11T04:12:25;9.70;26.40
22383;DHT22;11359;45.802;13.530;2023-02-11T04:14:51;9.70;26.50
22383;DHT22;11359;45.802;13.530;2023-02-11T04:17:18;9.70;26.50
22383;DHT22;11359;45.802;13.530;2023-02-11T04:19:44;9.70;26.50
22383;DHT22;11359;45.802;13.530;2023-02-11T04:22:10;9.70;26.60
22383;DHT22;11359;45.802;13.530;2023-02-11T04:24:39;9.60;26.60
22383;DHT22;11359;45.802;13.530;2023-02-11T04:27:05;9.60;27.10
22383;DHT22;11359;45.802;13.530;2023-02-11T04:29:34;9.60;26.70
22383;DHT22;11359;45.802;13.530;2023-02-11T04:32:00;9.60;26.70
22383;DHT22;11359;45.802;13.530;2023-02-11T04:34:26;9.60;26.70
22383;DHT22;11359;45.802;13.530;2023-02-11T04:36:52;9.50;26.70
22383;DHT22;11359;45.802;13.530;2023-02-11T04:39:18;9.50;26.70
22383;DHT22;11359;45.802;13.530;2023-02-11T04:41:43;9.50;26.70
22383;DHT22;11359;45.802;13.530;2023-02-11T04:44:09;9.50;26.70
22383;DHT22;11359;45.802;13.530;2023-02-11T04:46:35;9.40;26.70
22383;DHT22;11359;45.802;13.530;2023-02-11T04:49:01;9.40;26.80
22383;DHT22;11359;45.802;13.530;2023-02-11T04:51:27;9.40;26.90
22383;DHT22;11359;45.802;13.530;2023-02-11T04:53:56;9.40;26.90
22383;DHT22;11359;45.802;13.530;2023-02-11T04:56:21;9.40;26.90
22383;DHT22;11359;45.802;13.530;2023-02-11T04:58:47;9.40;26.90
22383;DHT22;11359;45.802;13.530;2023-02-11T05:01:14;9.30;26.90
22383;DHT22;11359;45.802;13.530;2023-02-11T05:03:41;9.30;26.90
22383;DHT22;11359;45.802;13.530;2023-02-11T05:06:07;9.30;27.00
22383;DHT22;11359;45.802;13.530;2023-02-11T05:08:34;9.30;27.00
22383;DHT22;11359;45.802;13.530;2023-02-11T05:11:00;9.30;27.00
22383;DHT22;11359;45.802;13.530;2023-02-11T05:13:27;9.20;26.90
22383;DHT22;11359;45.802;13.530;2023-02-11T05:15:53;9.20;27.00
22383;DHT22;11359;45.802;13.530;2023-02-11T05:18:20;9.20;27.00
22383;DHT22;11359;45.802;13.530;2023-02-11T05:20:46;9.20;27.00
22383;DHT22;11359;45.802;13.530;2023-02-11T05:23:12;9.20;27.10
22383;DHT22;11359;45.802;13.530;2023-02-11T05:25:38;9.20;27.10
22383;DHT22;11359;45.802;13.530;2023-02-11T05:28:04;9.20;27.20
22383;DHT22;11359;45.802;13.530;2023-02-11T05:30:30;9.20;27.20
22383;DHT22;11359;45.802;13.530;2023-02-11T05:32:57;9.10;27.20
22383;DHT22;11359;45.802;13.530;2023-02-11T05:35:22;9.10;27.20
22383;DHT22;11359;45.802;13.530;2023-02-11T05:37:48;9.20;27.30
22383;DHT22;11359;45.802;13.530;2023-02-11T05:40:14;9.20;27.30
22383;DHT22;11359;45.802;13.530;2023-02-11T05:42:39;9.20;27.30
22383;DHT22;11359;45.802;13.530;2023-02-11T05:45:05;9.20;27.40
22383;DHT22;11359;45.802;13.530;2023-02-11T05:47:31;9.20;27.40
22383;DHT22;11359;45.802;13.530;2023-02-11T05:49:57;9.20;27.40
22383;DHT22;11359;45.802;13.530;2023-02-11T05:52:23;9.20;27.40
22383;DHT22;11359;45.802;13.530;2023-02-11T05:54:49;9.20;27.40
22383;DHT22;11359;45.802;13.530;2023-02-11T05:57:15;9.30;27.40
22383;DHT22;11359;45.802;13.530;2023-02-11T05:59:41;9.30;27.40
22383;DHT22;11359;45.802;13.530;2023-02-11T06:02:08;9.30;27.50
22383;DHT22;11359;45.802;13.530;2023-02-11T06:04:35;9.40;27.50
22383;DHT22;11359;45.802;13.530;2023-02-11T06:07:01;9.50;27.50
22383;DHT22;11359;45.802;13.530;2023-02-11T06:09:27;9.50;27.50
22383;DHT22;11359;45.802;13.530;2023-02-11T06:11:54;9.60;27.50
22383;DHT22;11359;45.802;13.530;2023-02-11T06:14:19;9.60;27.50
22383;DHT22;11359;45.802;13.530;2023-02-11T06:16:45;9.70;27.50
22383;DHT22;11359;45.802;13.530;2023-02-11T06:19:12;9.70;27.50
22383;DHT22;11359;45.802;13.530;2023-02-11T06:21:38;9.80;27.50
22383;DHT22;11359;45.802;13.530;2023-02-11T06:24:05;9.90;27.50
22383;DHT22;11359;45.802;13.530;2023-02-11T06:26:31;10.00;27.50
22383;DHT22;11359;45.802;13.530;2023-02-11T06:28:59;10.00;27.50
22383;DHT22;11359;45.802;13.530;2023-02-11T06:31:24;10.10;27.50
22383;DHT22;11359;45.802;13.530;2023-02-11T06:33:50;10.10;27.40
22383;DHT22;11359;45.802;13.530;2023-02-11T06:36:18;10.20;27.40
22383;DHT22;11359;45.802;13.530;2023-02-11T06:38:44;10.30;27.40
22383;DHT22;11359;45.802;13.530;2023-02-11T06:41:15;10.30;27.40
22383;DHT22;11359;45.802;13.530;2023-02-11T06:43:41;10.40;27.40
22383;DHT22;11359;45.802;13.530;2023-02-11T06:46:08;10.50;27.30
22383;DHT22;11359;45.802;13.530;2023-02-11T06:48:34;10.60;27.30
22383;DHT22;11359;45.802;13.530;2023-02-11T06:51:02;10.60;27.30
22383;DHT22;11359;45.802;13.530;2023-02-11T06:53:29;10.70;27.30
22383;DHT22;11359;45.802;13.530;2023-02-11T06:55:55;10.80;27.30
22383;DHT22;11359;45.802;13.530;2023-02-11T06:58:21;10.90;27.30
22383;DHT22;11359;45.802;13.530;2023-02-11T07:00:47;11.00;27.30
22383;DHT22;11359;45.802;13.530;2023-02-11T07:03:12;11.00;27.30
22383;DHT22;11359;45.802;13.530;2023-02-11T07:05:41;11.10;27.30
22383;DHT22;11359;45.802;13.530;2023-02-11T07:08:07;11.20;27.30
22383;DHT22;11359;45.802;13.530;2023-02-11T07:10:33;11.30;27.30
22383;DHT22;11359;45.802;13.530;2023-02-11T07:12:59;11.30;27.20
22383;DHT22;11359;45.802;13.530;2023-02-11T07:15:25;11.40;27.10
22383;DHT22;11359;45.802;13.530;2023-02-11T07:17:51;11.50;27.10
22383;DHT22;11359;45.802;13.530;2023-02-11T07:20:17;11.60;27.10
22383;DHT22;11359;45.802;13.530;2023-02-11T07:22:43;11.70;27.10
22383;DHT22;11359;45.802;13.530;2023-02-11T07:25:08;11.70;27.10
22383;DHT22;11359;45.802;13.530;2023-02-11T07:27:34;11.80;27.10
22383;DHT22;11359;45.802;13.530;2023-02-11T07:30:00;12.00;27.10
22383;DHT22;11359;45.802;13.530;2023-02-11T07:32:26;12.00;27.00
22383;DHT22;11359;45.802;13.530;2023-02-11T07:34:51;12.10;27.00
22383;DHT22;11359;45.802;13.530;2023-02-11T07:37:18;12.20;27.00
22383;DHT22;11359;45.802;13.530;2023-02-11T07:39:43;12.30;27.00
22383;DHT22;11359;45.802;13.530;2023-02-11T07:42:09;12.40;27.00
22383;DHT22;11359;45.802;13.530;2023-02-11T07:44:35;12.50;26.90
22383;DHT22;11359;45.802;13.530;2023-02-11T07:47:01;12.60;26.90
22383;DHT22;11359;45.802;13.530;2023-02-11T07:49:27;12.60;26.80
22383;DHT22;11359;45.802;13.530;2023-02-11T07:51:53;12.80;26.90
22383;DHT22;11359;45.802;13.530;2023-02-11T07:54:19;12.90;27.40
22383;DHT22;11359;45.802;13.530;2023-02-11T07:56:45;13.00;26.90
22383;DHT22;11359;45.802;13.530;2023-02-11T07:59:11;13.10;26.90
22383;DHT22;11359;45.802;13.530;2023-02-11T08:01:37;13.20;26.80
22383;DHT22;11359;45.802;13.530;2023-02-11T08:04:03;13.20;26.80
22383;DHT22;11359;45.802;13.530;2023-02-11T08:06:32;13.40;26.80
22383;DHT22;11359;45.802;13.530;2023-02-11T08:09:03;13.50;26.80
22383;DHT22;11359;45.802;13.530;2023-02-11T08:11:30;13.50;26.70
22383;DHT22;11359;45.802;13.530;2023-02-11T08:13:55;13.60;26.60
22383;DHT22;11359;45.802;13.530;2023-02-11T08:16:26;13.70;26.60
22383;DHT22;11359;45.802;13.530;2023-02-11T08:18:55;13.80;26.70
22383;DHT22;11359;45.802;13.530;2023-02-11T08:21:22;13.90;26.60
22383;DHT22;11359;45.802;13.530;2023-02-11T08:23:48;14.10;26.50
22383;DHT22;11359;45.802;13.530;2023-02-11T08:26:18;14.10;26.40
22383;DHT22;11359;45.802;13.530;2023-02-11T08:28:45;14.30;26.40
22383;DHT22;11359;45.802;13.530;2023-02-11T08:31:20;14.30;26.30
22383;DHT22;11359;45.802;13.530;2023-02-11T08:33:46;14.40;26.80
22383;DHT22;11359;45.802;13.530;2023-02-11T08:36:16;14.50;26.30
22383;DHT22;11359;45.802;13.530;2023-02-11T08:38:42;14.50;26.20
22383;DHT22;11359;45.802;13.530;2023-02-11T08:41:09;14.60;26.10
22383;DHT22;11359;45.802;13.530;2023-02-11T08:43:36;14.70;26.00
22383;DHT22;11359;45.802;13.530;2023-02-11T08:46:07;14.80;26.00
22383;DHT22;11359;45.802;13.530;2023-02-11T08:48:33;14.80;25.90
22383;DHT22;11359;45.802;13.530;2023-02-11T08:50:59;14.90;25.90
22383;DHT22;11359;45.802;13.530;2023-02-11T08:53:25;15.00;25.90
22383;DHT22;11359;45.802;13.530;2023-02-11T08:55:53;15.00;25.80
22383;DHT22;11359;45.802;13.530;2023-02-11T08:58:21;15.10;25.80
22383;DHT22;11359;45.802;13.530;2023-02-11T09:00:48;15.20;25.70
22383;DHT22;11359;45.802;13.530;2023-02-11T09:03:15;15.20;25.60
22383;DHT22;11359;45.802;13.530;2023-02-11T09:05:45;15.30;25.60
22383;DHT22;11359;45.802;13.530;2023-02-11T09:08:12;15.40;25.50
22383;DHT22;11359;45.802;13.530;2023-02-11T09:10:38;15.40;25.50
22383;DHT22;11359;45.802;13.530;2023-02-11T09:13:04;15.50;25.40
22383;DHT22;11359;45.802;13.530;2023-02-11T09:15:30;15.50;25.30
22383;DHT22;11359;45.802;13.530;2023-02-11T09:17:56;15.60;25.20
22383;DHT22;11359;45.802;13.530;2023-02-11T09:20:22;15.60;25.10
22383;DHT22;11359;45.802;13.530;2023-02-11T09:22:48;15.60;25.00
22383;DHT22;11359;45.802;13.530;2023-02-11T09:25:14;15.70;25.00
22383;DHT22;11359;45.802;13.530;2023-02-11T09:27:41;15.70;25.00
22383;DHT22;11359;45.802;13.530;2023-02-11T09:30:07;15.70;24.90
22383;DHT22;11359;45.802;13.530;2023-02-11T09:32:34;15.70;24.90
22383;DHT22;11359;45.802;13.530;2023-02-11T09:35:00;15.70;24.90
22383;DHT22;11359;45.802;13.530;2023-02-11T09:37:26;15.80;24.90
22383;DHT22;11359;45.802;13.530;2023-02-11T09:39:52;15.80;24.80
22383;DHT22;11359;45.802;13.530;2023-02-11T09:44:57;15.80;24.70
22383;DHT22;11359;45.802;13.530;2023-02-11T09:47:30;15.80;24.60
22383;DHT22;11359;45.802;13.530;2023-02-11T09:50:06;15.80;24.60
22383;DHT22;11359;45.802;13.530;2023-02-11T09:53:28;15.80;24.50
22383;DHT22;11359;45.802;13.530;2023-02-11T09:55:42;15.80;24.40
22383;DHT22;11359;45.802;13.530;2023-02-11T09:58:39;15.70;24.00
22383;DHT22;11359;45.802;13.530;2023-02-11T10:07:37;15.60;23.50
22383;DHT22;11359;45.802;13.530;2023-02-11T10:15:58;15.30;23.50
22383;DHT22;11359;45.802;13.530;2023-02-11T10:23:51;15.20;23.70
22383;DHT22;11359;45.802;13.530;2023-02-11T10:26:19;15.20;23.80
22383;DHT22;11359;45.802;13.530;2023-02-11T10:28:48;15.10;23.70
22383;DHT22;11359;45.802;13.530;2023-02-11T10:31:23;15.10;23.80
22383;DHT22;11359;45.802;13.530;2023-02-11T10:36:30;15.10;23.90
22383;DHT22;11359;45.802;13.530;2023-02-11T10:39:20;15.10;23.90
22383;DHT22;11359;45.802;13.530;2023-02-11T10:41:51;15.10;23.90
22383;DHT22;11359;45.802;13.530;2023-02-11T10:44:33;15.10;24.00
22383;DHT22;11359;45.802;13.530;2023-02-11T10:47:10;15.10;23.90
22383;DHT22;11359;45.802;13.530;2023-02-11T10:49:42;15.10;23.90
22383;DHT22;11359;45.802;13.530;2023-02-11T10:52:18;15.10;23.90
22383;DHT22;11359;45.802;13.530;2023-02-11T10:55:04;15.10;24.00
22383;DHT22;11359;45.802;13.530;2023-02-11T10:57:42;15.20;23.90
22383;DHT22;11359;45.802;13.530;2023-02-11T11:02:43;15.20;23.90
22383;DHT22;11359;45.802;13.530;2023-02-11T11:05:16;15.10;23.80
22383;DHT22;11359;45.802;13.530;2023-02-11T11:08:01;15.10;23.80
22383;DHT22;11359;45.802;13.530;2023-02-11T11:13:32;15.10;23.70
22383;DHT22;11359;45.802;13.530;2023-02-11T11:22:06;15.10;23.70
22383;DHT22;11359;45.802;13.530;2023-02-11T11:24:44;15.00;23.60
22383;DHT22;11359;45.802;13.530;2023-02-11T11:27:22;15.00;23.60
22383;DHT22;11359;45.802;13.530;2023-02-11T11:29:53;15.00;23.50
22383;DHT22;11359;45.802;13.530;2023-02-11T11:32:23;15.00;23.60
22383;DHT22;11359;45.802;13.530;2023-02-11T11:35:01;15.00;23.70
22383;DHT22;11359;45.802;13.530;2023-02-11T11:37:31;15.00;23.70
22383;DHT22;11359;45.802;13.530;2023-02-11T11:40:07;15.00;23.70
22383;DHT22;11359;45.802;13.530;2023-02-11T11:42:36;14.90;23.70
22383;DHT22;11359;45.802;13.530;2023-02-11T11:56:19;15.00;23.80
22383;DHT22;11359;45.802;13.530;2023-02-11T11:58:46;15.00;23.80
22383;DHT22;11359;45.802;13.530;2023-02-11T12:18:04;15.30;23.90
22383;DHT22;11359;45.802;13.530;2023-02-11T12:21:55;15.30;23.80
22383;DHT22;11359;45.802;13.530;2023-02-11T12:26:50;15.50;23.90
22383;DHT22;11359;45.802;13.530;2023-02-11T12:30:07;15.60;23.80
22383;DHT22;11359;45.802;13.530;2023-02-11T12:33:04;15.60;23.80
22383;DHT22;11359;45.802;13.530;2023-02-11T12:35:58;15.70;23.70
22383;DHT22;11359;45.802;13.530;2023-02-11T12:39:21;15.70;23.70
22383;DHT22;11359;45.802;13.530;2023-02-11T12:47:48;15.90;23.80
22383;DHT22;11359;45.802;13.530;2023-02-11T12:55:37;16.20;24.00
22383;DHT22;11359;45.802;13.530;2023-02-11T12:58:11;16.20;24.00
22383;DHT22;11359;45.802;13.530;2023-02-11T13:01:10;16.30;23.90
22383;DHT22;11359;45.802;13.530;2023-02-11T13:06:19;16.50;23.90
22383;DHT22;11359;45.802;13.530;2023-02-11T13:08:50;16.60;24.10
22383;DHT22;11359;45.802;13.530;2023-02-11T13:11:50;16.70;24.20
22383;DHT22;11359;45.802;13.530;2023-02-11T13:14:37;16.80;24.30
22383;DHT22;11359;45.802;13.530;2023-02-11T13:17:15;16.90;24.40
22383;DHT22;11359;45.802;13.530;2023-02-11T13:19:52;16.90;24.50
22383;DHT22;11359;45.802;13.530;2023-02-11T13:22:22;17.00;24.60
22383;DHT22;11359;45.802;13.530;2023-02-11T13:24:59;17.10;24.70
22383;DHT22;11359;45.802;13.530;2023-02-11T13:27:53;17.20;24.80
22383;DHT22;11359;45.802;13.530;2023-02-11T13:30:36;17.30;24.90
22383;DHT22;11359;45.802;13.530;2023-02-11T13:35:48;17.50;24.90
22383;DHT22;11359;45.802;13.530;2023-02-11T13:38:34;17.60;25.00
22383;DHT22;11359;45.802;13.530;2023-02-11T13:43:37;17.70;25.00
22383;DHT22;11359;45.802;13.530;2023-02-11T13:46:05;17.80;25.20
22383;DHT22;11359;45.802;13.530;2023-02-11T13:48:35;17.80;25.20
22383;DHT22;11359;45.802;13.530;2023-02-11T13:51:07;17.90;25.30
22383;DHT22;11359;45.802;13.530;2023-02-11T13:53:48;17.90;25.30
22383;DHT22;11359;45.802;13.530;2023-02-11T13:56:38;18.00;25.30
22383;DHT22;11359;45.802;13.530;2023-02-11T14:10:52;18.20;25.40
22383;DHT22;11359;45.802;13.530;2023-02-11T14:13:27;18.30;25.30
22383;DHT22;11359;45.802;13.530;2023-02-11T14:16:22;18.30;25.30
22383;DHT22;11359;45.802;13.530;2023-02-11T14:21:43;18.30;25.40
22383;DHT22;11359;45.802;13.530;2023-02-11T14:26:48;18.40;25.50
22383;DHT22;11359;45.802;13.530;2023-02-11T14:29:37;18.50;25.50
22383;DHT22;11359;45.802;13.530;2023-02-11T14:35:12;18.60;25.60
22383;DHT22;11359;45.802;13.530;2023-02-11T14:37:45;18.50;25.50
22383;DHT22;11359;45.802;13.530;2023-02-11T14:40:30;18.60;25.60
22383;DHT22;11359;45.802;13.530;2023-02-11T14:42:56;18.60;25.70
22383;DHT22;11359;45.802;13.530;2023-02-11T14:45:26;18.70;25.80
22383;DHT22;11359;45.802;13.530;2023-02-11T14:48:05;18.70;25.90
22383;DHT22;11359;45.802;13.530;2023-02-11T14:50:44;18.70;25.90
22383;DHT22;11359;45.802;13.530;2023-02-11T14:53:20;18.70;26.00
22383;DHT22;11359;45.802;13.530;2023-02-11T14:55:48;18.70;26.00
22383;DHT22;11359;45.802;13.530;2023-02-11T14:58:19;18.80;26.00
22383;DHT22;11359;45.802;13.530;2023-02-11T15:00:58;18.80;26.10
22383;DHT22;11359;45.802;13.530;2023-02-11T15:03:41;18.80;26.20
22383;DHT22;11359;45.802;13.530;2023-02-11T15:06:29;18.90;26.30
22383;DHT22;11359;45.802;13.530;2023-02-11T15:08:59;19.00;26.40
22383;DHT22;11359;45.802;13.530;2023-02-11T15:11:33;19.00;26.50
22383;DHT22;11359;45.802;13.530;2023-02-11T15:14:24;19.00;26.60
22383;DHT22;11359;45.802;13.530;2023-02-11T15:16:52;19.10;26.60
22383;DHT22;11359;45.802;13.530;2023-02-11T15:19:23;19.20;26.70
22383;DHT22;11359;45.802;13.530;2023-02-11T15:21:51;19.20;26.70
22383;DHT22;11359;45.802;13.530;2023-02-11T15:27:03;19.30;26.50
22383;DHT22;11359;45.802;13.530;2023-02-11T15:29:45;19.40;26.50
22383;DHT22;11359;45.802;13.530;2023-02-11T15:32:17;19.40;26.40
22383;DHT22;11359;45.802;13.530;2023-02-11T15:34:45;19.40;26.30
22383;DHT22;11359;45.802;13.530;2023-02-11T15:39:43;19.40;26.10
22383;DHT22;11359;45.802;13.530;2023-02-11T15:42:26;19.50;26.10
22383;DHT22;11359;45.802;13.530;2023-02-11T15:47:52;19.50;25.90
22383;DHT22;11359;45.802;13.530;2023-02-11T15:50:26;19.50;25.90
22383;DHT22;11359;45.802;13.530;2023-02-11T15:52:52;19.50;25.80
22383;DHT22;11359;45.802;13.530;2023-02-11T15:55:19;19.50;25.80
22383;DHT22;11359;45.802;13.530;2023-02-11T15:57:52;19.50;25.80
22383;DHT22;11359;45.802;13.530;2023-02-11T16:00:21;19.50;25.70
22383;DHT22;11359;45.802;13.530;2023-02-11T16:02:49;19.50;25.80
22383;DHT22;11359;45.802;13.530;2023-02-11T16:05:34;19.50;25.80
22383;DHT22;11359;45.802;13.530;2023-02-11T16:08:16;19.50;25.80
22383;DHT22;11359;45.802;13.530;2023-02-11T16:13:22;19.50;25.80
22383;DHT22;11359;45.802;13.530;2023-02-11T16:15:55;19.40;25.80
22383;DHT22;11359;45.802;13.530;2023-02-11T16:18:36;19.40;25.90
22383;DHT22;11359;45.802;13.530;2023-02-11T16:21:04;19.40;25.90
22383;DHT22;11359;45.802;13.530;2023-02-11T16:23:38;19.40;25.90
22383;DHT22;11359;45.802;13.530;2023-02-11T16:26:19;19.40;25.90
22383;DHT22;11359;45.802;13.530;2023-02-11T16:28:46;19.40;26.00
22383;DHT22;11359;45.802;13.530;2023-02-11T16:31:11;19.40;26.10
22383;DHT22;11359;45.802;13.530;2023-02-11T16:33:38;19.40;26.10
22383;DHT22;11359;45.802;13.530;2023-02-11T16:36:15;19.40;26.20
22383;DHT22;11359;45.802;13.530;2023-02-11T16:38:43;19.40;26.10
22383;DHT22;11359;45.802;13.530;2023-02-11T16:41:09;19.30;26.00
22383;DHT22;11359;45.802;13.530;2023-02-11T16:43:38;19.40;26.00
22383;DHT22;11359;45.802;13.530;2023-02-11T16:46:04;19.30;25.90
22383;DHT22;11359;45.802;13.530;2023-02-11T16:48:31;19.30;25.90
22383;DHT22;11359;45.802;13.530;2023-02-11T16:50:58;19.30;25.90
22383;DHT22;11359;45.802;13.530;2023-02-11T16:53:24;19.30;25.80
22383;DHT22;11359;45.802;13.530;2023-02-11T16:55:52;19.30;25.80
22383;DHT22;11359;45.802;13.530;2023-02-11T16:58:18;19.20;25.80
22383;DHT22;11359;45.802;13.530;2023-02-11T17:00:46;19.20;25.80
22383;DHT22;11359;45.802;13.530;2023-02-11T17:03:22;19.20;25.80
22383;DHT22;11359;45.802;13.530;2023-02-11T17:05:49;19.20;25.80
22383;DHT22;11359;45.802;13.530;2023-02-11T17:08:16;19.20;25.80
22383;DHT22;11359;45.802;13.530;2023-02-11T17:10:41;19.20;25.80
22383;DHT22;11359;45.802;13.530;2023-02-11T17:13:07;19.20;25.80
22383;DHT22;11359;45.802;13.530;2023-02-11T17:15:33;19.10;25.80
22383;DHT22;11359;45.802;13.530;2023-02-11T17:17:59;19.10;25.80
22383;DHT22;11359;45.802;13.530;2023-02-11T17:20:24;19.10;25.80
22383;DHT22;11359;45.802;13.530;2023-02-11T17:22:50;19.10;25.80
22383;DHT22;11359;45.802;13.530;2023-02-11T17:25:17;19.10;25.80
22383;DHT22;11359;45.802;13.530;2023-02-11T17:27:43;19.10;25.80
22383;DHT22;11359;45.802;13.530;2023-02-11T17:30:11;19.10;25.80
22383;DHT22;11359;45.802;13.530;2023-02-11T17:32:37;19.10;25.80
22383;DHT22;11359;45.802;13.530;2023-02-11T17:35:03;19.10;25.80
22383;DHT22;11359;45.802;13.530;2023-02-11T17:37:31;19.10;25.80
22383;DHT22;11359;45.802;13.530;2023-02-11T17:39:56;19.10;25.80
22383;DHT22;11359;45.802;13.530;2023-02-11T17:42:22;19.10;25.90
22383;DHT22;11359;45.802;13.530;2023-02-11T17:44:48;19.10;25.90
22383;DHT22;11359;45.802;13.530;2023-02-11T17:47:14;19.00;25.90
22383;DHT22;11359;45.802;13.530;2023-02-11T17:49:40;19.10;26.00
22383;DHT22;11359;45.802;13.530;2023-02-11T17:52:06;19.10;26.00
22383;DHT22;11359;45.802;13.530;2023-02-11T17:54:32;19.10;26.10
22383;DHT22;11359;45.802;13.530;2023-02-11T17:56:58;19.10;26.10
22383;DHT22;11359;45.802;13.530;2023-02-11T17:59:23;19.10;26.20